createdAt,value
2019-03-15T00:00:29.270Z,41.39
2019-03-15T00:02:55.567Z,40.94
2019-03-15T00:05:21.834Z,40.87
2019-03-15T00:07:48.004Z,41.15
2019-03-15T00:10:14.322Z,41.27
2019-03-15T00:12:40.674Z,41.55
2019-03-15T00:15:07.435Z,41.33
2019-03-15T00:17:33.598Z,41.80
2019-03-15T00:19:59.796Z,43.65
2019-03-15T00:22:25.956Z,42.37
2019-03-15T00:24:52.212Z,42.06
2019-03-15T00:27:18.397Z,42.11
2019-03-15T00:29:44.567Z,41.74
2019-03-15T00:32:13.123Z,41.11
2019-03-15T00:34:39.320Z,41.16
2019-03-15T00:37:05.481Z,41.26
2019-03-15T00:39:31.640Z,41.85
2019-03-15T00:41:57.841Z,41.69
2019-03-15T00:44:23.992Z,41.49
2019-03-15T00:46:50.153Z,41.34
2019-03-15T00:49:16.358Z,41.40
2019-03-15T00:51:42.618Z,41.69
2019-03-15T00:54:08.899Z,41.40
2019-03-15T00:56:35.095Z,42.54
2019-03-15T00:59:02.169Z,41.86
2019-03-15T01:01:28.325Z,41.25
2019-03-15T01:03:54.535Z,41.19
2019-03-15T01:06:20.815Z,41.45
2019-03-15T01:08:46.970Z,41.34
2019-03-15T01:11:13.170Z,41.41
2019-03-15T01:13:39.346Z,41.22
2019-03-15T01:16:05.609Z,41.13
2019-03-15T01:18:31.799Z,41.31
2019-03-15T01:20:58.075Z,41.60
2019-03-15T01:23:24.222Z,41.58
2019-03-15T01:25:50.415Z,42.48
2019-03-15T01:28:16.573Z,42.01
2019-03-15T01:30:42.840Z,42.07
2019-03-15T01:33:09.051Z,42.05
2019-03-15T01:35:35.212Z,42.46
2019-03-15T01:38:01.484Z,42.58
2019-03-15T01:40:27.675Z,42.83
2019-03-15T01:42:53.834Z,42.66
2019-03-15T01:45:19.995Z,42.89
2019-03-15T01:47:46.183Z,42.89
2019-03-15T01:50:12.344Z,42.97
2019-03-15T01:52:38.498Z,43.20
2019-03-15T01:55:04.994Z,43.12
2019-03-15T01:57:31.275Z,43.07
2019-03-15T01:59:57.708Z,43.25
2019-03-15T02:02:23.905Z,43.26
2019-03-15T02:04:50.060Z,42.69
2019-03-15T02:07:16.307Z,43.24
2019-03-15T02:09:42.607Z,43.30
2019-03-15T02:12:08.871Z,43.87
2019-03-15T02:14:35.026Z,43.50
2019-03-15T02:17:01.224Z,43.24
2019-03-15T02:19:27.387Z,43.64
2019-03-15T02:21:53.535Z,44.06
2019-03-15T02:24:19.730Z,43.37
2019-03-15T02:26:45.983Z,42.86
2019-03-15T02:29:12.239Z,43.30
2019-03-15T02:31:38.429Z,43.42
2019-03-15T02:34:04.590Z,43.20
2019-03-15T02:36:30.745Z,43.26
2019-03-15T02:38:56.947Z,43.25
2019-03-15T02:41:23.107Z,43.32
2019-03-15T02:43:49.268Z,44.86
2019-03-15T02:46:15.459Z,44.95
2019-03-15T02:48:41.724Z,45.30
2019-03-15T02:51:08.227Z,44.75
2019-03-15T02:53:34.950Z,45.25
2019-03-15T02:56:01.450Z,46.22
2019-03-15T02:58:28.148Z,45.91
2019-03-15T03:00:54.766Z,44.87
2019-03-15T03:03:21.023Z,44.76
2019-03-15T03:05:47.281Z,45.15
2019-03-15T03:08:14.224Z,45.28
2019-03-15T03:10:40.830Z,44.77
2019-03-15T03:13:06.978Z,43.85
2019-03-15T03:15:33.182Z,44.20
2019-03-15T03:17:59.322Z,44.39
2019-03-15T03:20:25.488Z,44.42
2019-03-15T03:22:51.781Z,43.65
2019-03-15T03:25:17.944Z,44.68
2019-03-15T03:27:44.102Z,44.83
2019-03-15T03:30:10.295Z,44.02
2019-03-15T03:32:36.615Z,44.34
2019-03-15T03:35:04.842Z,43.98
2019-03-15T03:37:31.130Z,43.89
2019-03-15T03:39:57.534Z,43.76
2019-03-15T03:42:23.671Z,43.97
2019-03-15T03:44:49.962Z,44.17
2019-03-15T03:47:16.219Z,44.13
2019-03-15T03:49:42.486Z,44.20
2019-03-15T03:52:08.687Z,44.28
2019-03-15T03:54:34.946Z,44.27
2019-03-15T03:57:01.112Z,43.41
2019-03-15T03:59:27.301Z,43.56
2019-03-15T04:01:54.581Z,44.28
2019-03-15T04:04:20.740Z,44.49
2019-03-15T04:06:46.930Z,44.36
2019-03-15T04:09:13.087Z,45.39
2019-03-15T04:11:39.240Z,45.35
2019-03-15T04:14:05.420Z,45.20
2019-03-15T04:16:31.702Z,45.18
2019-03-15T04:18:57.853Z,45.57
2019-03-15T04:21:24.038Z,45.27
2019-03-15T04:23:50.191Z,45.51
2019-03-15T04:26:16.351Z,46.42
2019-03-15T04:28:42.530Z,45.39
2019-03-15T04:31:08.691Z,44.89
2019-03-15T04:33:34.842Z,44.42
2019-03-15T04:36:01.026Z,44.01
2019-03-15T04:38:27.185Z,43.98
2019-03-15T04:40:53.346Z,44.22
2019-03-15T04:43:19.636Z,44.20
2019-03-15T04:45:45.811Z,44.44
2019-03-15T04:48:11.992Z,44.52
2019-03-15T04:50:38.181Z,46.29
2019-03-15T04:53:04.437Z,46.11
2019-03-15T04:55:30.588Z,45.18
2019-03-15T04:57:56.823Z,45.24
2019-03-15T05:00:23.429Z,45.03
2019-03-15T05:02:49.637Z,44.60
2019-03-15T05:05:15.824Z,44.44
2019-03-15T05:07:41.983Z,44.37
2019-03-15T05:10:08.340Z,43.74
2019-03-15T05:12:34.561Z,42.75
2019-03-15T05:15:00.732Z,42.06
2019-03-15T05:17:26.918Z,41.38
2019-03-15T05:19:53.106Z,40.81
2019-03-15T05:22:19.260Z,39.16
2019-03-15T05:24:45.421Z,38.05
2019-03-15T05:27:11.605Z,36.96
2019-03-15T05:29:37.759Z,36.29
2019-03-15T05:32:03.928Z,36.97
2019-03-15T05:34:30.123Z,38.90
2019-03-15T05:36:56.288Z,39.87
2019-03-15T05:39:22.447Z,39.22
2019-03-15T05:41:48.645Z,39.21
2019-03-15T05:44:14.798Z,39.93
2019-03-15T05:46:41.058Z,40.66
2019-03-15T05:49:07.356Z,41.51
2019-03-15T05:51:33.514Z,41.66
2019-03-15T05:53:59.676Z,41.67
2019-03-15T05:56:25.863Z,40.68
2019-03-15T05:58:52.023Z,40.40
2019-03-15T06:01:18.286Z,40.69
2019-03-15T06:03:48.916Z,41.14
2019-03-15T06:06:12.694Z,40.57
2019-03-15T06:08:38.843Z,40.76
2019-03-15T06:11:05.435Z,40.53
2019-03-15T06:13:31.595Z,41.25
2019-03-15T06:15:57.790Z,40.94
2019-03-15T06:18:24.094Z,40.66
2019-03-15T06:20:50.244Z,40.43
2019-03-15T06:23:17.015Z,39.82
2019-03-15T06:25:43.402Z,39.67
2019-03-15T06:28:09.555Z,40.04
2019-03-15T06:30:35.712Z,40.59
2019-03-15T06:33:02.034Z,40.08
2019-03-15T06:35:28.200Z,39.95
2019-03-15T06:37:54.354Z,39.15
2019-03-15T06:40:20.557Z,39.07
2019-03-15T06:42:46.719Z,38.25
2019-03-15T06:45:13.666Z,38.01
2019-03-15T06:47:39.856Z,39.59
2019-03-15T06:50:07.120Z,39.37
2019-03-15T06:52:33.275Z,39.03
2019-03-15T06:55:00.071Z,38.02
2019-03-15T06:57:26.537Z,37.75
2019-03-15T06:59:52.700Z,41.74
2019-03-15T07:02:19.592Z,40.82
2019-03-15T07:04:46.936Z,40.01
2019-03-15T07:07:15.159Z,39.22
2019-03-15T07:09:41.280Z,38.31
2019-03-15T07:12:09.706Z,39.15
2019-03-15T07:14:35.501Z,38.21
2019-03-15T07:17:01.806Z,37.93
2019-03-15T07:19:30.482Z,37.21
2019-03-15T07:21:56.229Z,35.92
2019-03-15T07:24:25.561Z,35.59
2019-03-15T07:26:50.517Z,34.72
2019-03-15T07:29:18.972Z,34.09
2019-03-15T07:31:44.899Z,34.01
2019-03-15T07:34:13.651Z,35.14
2019-03-15T07:36:39.218Z,34.55
2019-03-15T07:39:05.726Z,34.04
2019-03-15T07:41:31.892Z,34.01
2019-03-15T07:43:58.152Z,33.86
2019-03-15T07:46:24.339Z,33.67
2019-03-15T07:48:50.512Z,31.86
2019-03-15T07:51:16.779Z,32.42
2019-03-15T07:53:43.073Z,32.10
2019-03-15T07:56:09.243Z,33.94
2019-03-15T07:58:35.411Z,33.70
2019-03-15T08:01:02.027Z,34.27
2019-03-15T08:03:28.188Z,34.58
2019-03-15T08:05:55.483Z,31.28
2019-03-15T08:08:21.775Z,30.50
2019-03-15T08:10:47.959Z,35.18
2019-03-15T08:13:14.120Z,34.47
2019-03-15T08:15:40.403Z,35.54
2019-03-15T08:18:06.566Z,35.09
2019-03-15T08:20:32.734Z,33.46
2019-03-15T08:22:59.053Z,32.98
2019-03-15T08:25:25.224Z,32.90
2019-03-15T08:27:51.386Z,32.94
2019-03-15T08:30:17.576Z,35.72
2019-03-15T08:32:44.287Z,35.28
2019-03-15T08:35:11.322Z,35.28
2019-03-15T08:37:37.513Z,32.52
2019-03-15T08:40:07.104Z,32.82
2019-03-15T08:42:34.688Z,32.86
2019-03-15T08:45:01.296Z,32.36
2019-03-15T08:47:27.465Z,32.41
2019-03-15T08:49:53.632Z,31.95
2019-03-15T08:52:19.824Z,30.92
2019-03-15T08:54:46.757Z,30.74
2019-03-15T08:57:13.364Z,29.58
2019-03-15T08:59:52.357Z,31.25
2019-03-15T09:02:07.653Z,29.03
2019-03-15T09:04:33.819Z,28.29
2019-03-15T09:07:00.077Z,31.46
2019-03-15T09:09:26.336Z,31.58
2019-03-15T09:11:52.504Z,33.27
2019-03-15T09:14:18.716Z,32.24
2019-03-15T09:16:44.877Z,32.96
2019-03-15T09:19:11.158Z,36.76
2019-03-15T09:21:37.346Z,33.53
2019-03-15T09:24:03.509Z,32.72
2019-03-15T09:26:29.673Z,32.24
2019-03-15T09:28:55.862Z,30.03
2019-03-15T09:31:22.033Z,29.55
2019-03-15T09:33:48.221Z,30.24
2019-03-15T09:36:14.413Z,30.98
2019-03-15T09:38:40.579Z,32.03
2019-03-15T09:41:06.745Z,32.10
2019-03-15T09:43:33.040Z,30.43
2019-03-15T09:45:59.207Z,28.42
2019-03-15T09:48:25.380Z,29.02
2019-03-15T09:50:51.976Z,32.23
2019-03-15T09:53:18.338Z,31.26
2019-03-15T09:55:44.498Z,28.88
2019-03-15T09:58:10.699Z,29.27
2019-03-15T10:00:36.952Z,30.50
2019-03-15T10:03:03.269Z,30.55
2019-03-15T10:05:29.466Z,29.67
2019-03-15T10:07:56.697Z,28.20
2019-03-15T10:10:22.965Z,29.74
2019-03-15T10:12:49.281Z,31.22
2019-03-15T10:15:16.245Z,30.33
2019-03-15T10:17:42.508Z,27.32
2019-03-15T10:20:12.542Z,26.87
2019-03-15T10:22:38.609Z,28.22
2019-03-15T10:25:13.299Z,26.11
2019-03-15T10:27:39.456Z,24.35
2019-03-15T10:30:09.026Z,24.59
2019-03-15T10:32:35.216Z,25.56
2019-03-15T10:35:01.372Z,27.18
2019-03-15T10:37:27.537Z,28.14
2019-03-15T10:39:53.757Z,27.69
2019-03-15T10:42:20.005Z,29.13
2019-03-15T10:44:46.159Z,26.79
2019-03-15T10:47:12.377Z,25.47
2019-03-15T10:49:38.539Z,24.54
2019-03-15T10:52:04.816Z,24.11
2019-03-15T10:54:31.119Z,23.94
2019-03-15T10:56:57.276Z,21.55
2019-03-15T10:59:23.438Z,24.26
2019-03-15T11:01:49.953Z,23.97
2019-03-15T11:04:16.115Z,25.43
2019-03-15T11:06:42.276Z,25.77
2019-03-15T11:09:09.301Z,27.83
2019-03-15T11:11:35.599Z,29.50
2019-03-15T11:14:01.763Z,29.73
2019-03-15T11:16:28.069Z,28.52
2019-03-15T11:18:54.230Z,26.24
2019-03-15T11:21:20.409Z,25.29
2019-03-15T11:23:46.612Z,23.91
2019-03-15T11:26:14.107Z,24.57
2019-03-15T11:28:40.454Z,23.33
2019-03-15T11:31:06.651Z,22.84
2019-03-15T11:33:32.817Z,22.41
2019-03-15T11:35:59.072Z,22.85
2019-03-15T11:38:25.300Z,24.09
2019-03-15T11:40:51.464Z,26.11
2019-03-15T11:43:17.640Z,25.75
2019-03-15T11:45:43.934Z,23.70
2019-03-15T11:48:10.199Z,22.20
2019-03-15T11:50:36.471Z,22.69
2019-03-15T11:53:02.672Z,21.31
2019-03-15T11:55:28.991Z,23.71
2019-03-15T11:57:55.305Z,22.77
2019-03-15T12:00:21.493Z,22.70
2019-03-15T12:02:47.643Z,22.61
2019-03-15T12:05:14.099Z,21.57
2019-03-15T12:07:40.312Z,20.79
2019-03-15T12:10:09.062Z,23.54
2019-03-15T12:12:35.222Z,24.52
2019-03-15T12:15:01.417Z,24.42
2019-03-15T12:17:27.574Z,24.34
2019-03-15T12:19:53.760Z,23.10
2019-03-15T12:22:19.948Z,23.94
2019-03-15T12:24:46.008Z,23.17
2019-03-15T12:27:12.217Z,24.38
2019-03-15T12:29:38.412Z,25.36
2019-03-15T12:32:04.567Z,25.23
2019-03-15T12:34:30.731Z,26.10
2019-03-15T12:36:56.956Z,25.82
2019-03-15T12:39:23.216Z,25.83
2019-03-15T12:41:49.385Z,25.35
2019-03-15T12:44:15.589Z,24.92
2019-03-15T12:46:41.749Z,23.01
2019-03-15T12:49:07.929Z,21.69
2019-03-15T12:51:34.149Z,22.31
2019-03-15T12:54:00.380Z,23.07
2019-03-15T12:56:26.528Z,22.75
2019-03-15T12:58:52.834Z,22.79
2019-03-15T13:01:18.989Z,22.87
2019-03-15T13:03:45.247Z,23.58
2019-03-15T13:06:11.449Z,23.76
2019-03-15T13:08:37.607Z,23.68
2019-03-15T13:11:03.830Z,24.61
2019-03-15T13:13:30.123Z,24.07
2019-03-15T13:15:56.293Z,22.63
2019-03-15T13:18:22.498Z,22.83
2019-03-15T13:20:48.806Z,23.22
2019-03-15T13:23:14.961Z,25.32
2019-03-15T13:25:41.118Z,23.13
2019-03-15T13:28:07.306Z,22.34
2019-03-15T13:30:33.476Z,24.62
2019-03-15T13:32:59.664Z,24.66
2019-03-15T13:35:25.835Z,23.56
2019-03-15T13:37:51.991Z,22.88
2019-03-15T13:40:18.156Z,23.13
2019-03-15T13:42:44.370Z,22.51
2019-03-15T13:45:11.930Z,23.31
2019-03-15T13:47:38.103Z,23.95
2019-03-15T13:50:07.992Z,26.42
2019-03-15T13:52:34.254Z,24.98
2019-03-15T13:55:00.449Z,23.90
2019-03-15T13:57:26.603Z,23.24
2019-03-15T13:59:52.761Z,23.01
2019-03-15T14:02:18.943Z,23.02
2019-03-15T14:04:45.129Z,22.71
2019-03-15T14:07:11.420Z,21.30
2019-03-15T14:09:37.675Z,21.20
2019-03-15T14:12:04.704Z,21.42
2019-03-15T14:14:30.866Z,20.50
2019-03-15T14:16:57.029Z,23.38
2019-03-15T14:19:23.218Z,23.13
2019-03-15T14:21:49.403Z,24.97
2019-03-15T14:24:15.581Z,24.19
2019-03-15T14:26:41.890Z,25.10
2019-03-15T14:29:08.044Z,24.93
2019-03-15T14:31:34.112Z,24.69
2019-03-15T14:34:00.288Z,25.55
2019-03-15T14:36:26.546Z,24.34
2019-03-15T14:38:52.830Z,24.42
2019-03-15T14:41:18.998Z,25.74
2019-03-15T14:43:45.571Z,25.08
2019-03-15T14:46:12.254Z,24.33
2019-03-15T14:48:38.860Z,23.44
2019-03-15T14:51:05.022Z,22.58
2019-03-15T14:53:31.181Z,21.89
2019-03-15T14:55:57.475Z,21.56
2019-03-15T14:58:23.626Z,21.76
2019-03-15T15:00:49.782Z,21.44
2019-03-15T15:03:15.978Z,22.46
2019-03-15T15:05:42.236Z,22.78
2019-03-15T15:08:08.393Z,23.40
2019-03-15T15:10:34.692Z,23.50
2019-03-15T15:13:01.010Z,23.28
2019-03-15T15:15:27.266Z,22.66
2019-03-15T15:17:53.468Z,21.93
2019-03-15T15:20:19.626Z,22.60
2019-03-15T15:22:45.893Z,22.02
2019-03-15T15:25:15.957Z,22.47
2019-03-15T15:27:42.116Z,22.39
2019-03-15T15:30:13.864Z,22.48
2019-03-15T15:32:40.058Z,22.57
2019-03-15T15:35:08.121Z,22.58
2019-03-15T15:37:34.281Z,23.08
2019-03-15T15:40:00.787Z,22.71
2019-03-15T15:42:27.241Z,22.72
2019-03-15T15:44:53.396Z,22.83
2019-03-15T15:47:19.615Z,23.43
2019-03-15T15:49:45.805Z,24.19
2019-03-15T15:52:12.091Z,24.64
2019-03-15T15:54:38.389Z,25.45
2019-03-15T15:57:04.540Z,25.21
2019-03-15T15:59:30.717Z,25.33
2019-03-15T16:01:56.903Z,25.12
2019-03-15T16:04:23.079Z,24.99
2019-03-15T16:06:49.343Z,25.76
2019-03-15T16:09:15.540Z,25.81
2019-03-15T16:11:41.696Z,26.01
2019-03-15T16:14:08.877Z,26.80
2019-03-15T16:16:35.080Z,27.08
2019-03-15T16:19:01.240Z,26.95
2019-03-15T16:21:27.438Z,28.02
2019-03-15T16:23:53.712Z,28.22
2019-03-15T16:26:19.882Z,28.56
2019-03-15T16:28:46.040Z,28.27
2019-03-15T16:31:12.250Z,28.48
2019-03-15T16:33:38.411Z,28.67
2019-03-15T16:36:04.589Z,29.17
2019-03-15T16:38:30.789Z,29.39
2019-03-15T16:40:56.957Z,29.38
2019-03-15T16:43:23.114Z,29.11
2019-03-15T16:45:49.319Z,30.17
2019-03-15T16:48:15.484Z,29.76
2019-03-15T16:50:42.055Z,29.35
2019-03-15T16:53:08.351Z,29.17
2019-03-15T16:55:34.508Z,29.04
2019-03-15T16:58:00.673Z,28.59
2019-03-15T17:00:26.992Z,29.19
2019-03-15T17:02:53.149Z,29.02
2019-03-15T17:05:19.310Z,28.72
2019-03-15T17:07:45.602Z,29.18
2019-03-15T17:10:13.388Z,29.28
2019-03-15T17:12:39.547Z,29.45
2019-03-15T17:15:09.257Z,29.94
2019-03-15T17:17:35.420Z,29.57
2019-03-15T17:20:01.886Z,29.80
2019-03-15T17:22:28.136Z,30.02
2019-03-15T17:24:54.400Z,30.80
2019-03-15T17:27:20.563Z,30.78
2019-03-15T17:29:46.900Z,30.50
2019-03-15T17:32:13.057Z,30.41
2019-03-15T17:34:39.222Z,31.28
2019-03-15T17:37:06.876Z,31.48
2019-03-15T17:39:33.611Z,31.02
2019-03-15T17:41:59.949Z,32.54
2019-03-15T17:44:26.152Z,32.15
2019-03-15T17:46:52.317Z,32.47
2019-03-15T17:49:18.479Z,33.16
2019-03-15T17:51:44.772Z,33.38
2019-03-15T17:54:10.936Z,33.21
2019-03-15T17:56:37.110Z,33.39
2019-03-15T17:59:12.253Z,32.96
2019-03-15T18:01:31.578Z,35.37
2019-03-15T18:03:57.827Z,34.43
2019-03-15T18:06:24.035Z,34.15
2019-03-15T18:08:50.201Z,35.15
2019-03-15T18:11:16.362Z,33.63
2019-03-15T18:13:42.554Z,32.67
2019-03-15T18:16:09.272Z,34.88
2019-03-15T18:18:35.541Z,38.73
2019-03-15T18:21:01.738Z,37.28
2019-03-15T18:23:27.890Z,34.82
2019-03-15T18:25:54.157Z,36.92
2019-03-15T18:28:20.458Z,33.92
2019-03-15T18:30:46.614Z,34.14
2019-03-15T18:33:12.876Z,36.48
2019-03-15T18:35:39.187Z,38.22
2019-03-15T18:38:05.371Z,33.90
2019-03-15T18:40:31.541Z,32.99
2019-03-15T18:42:57.731Z,32.97
2019-03-15T18:45:23.899Z,33.08
2019-03-15T18:47:50.058Z,34.48
2019-03-15T18:50:24.428Z,33.10
2019-03-15T18:52:50.585Z,33.39
2019-03-15T18:55:16.958Z,33.36
2019-03-15T18:57:43.149Z,33.64
2019-03-15T19:00:12.603Z,32.34
2019-03-15T19:02:38.760Z,31.40
2019-03-15T19:05:07.352Z,31.06
2019-03-15T19:07:33.514Z,30.46
2019-03-15T19:09:59.678Z,30.20
2019-03-15T19:12:25.873Z,30.01
2019-03-15T19:14:52.041Z,29.58
2019-03-15T19:17:18.243Z,29.15
2019-03-15T19:19:44.655Z,28.95
2019-03-15T19:22:10.817Z,28.57
2019-03-15T19:24:36.989Z,28.80
2019-03-15T19:27:03.192Z,28.49
2019-03-15T19:29:29.356Z,28.30
2019-03-15T19:31:55.529Z,28.07
2019-03-15T19:34:21.724Z,29.52
2019-03-15T19:36:47.880Z,28.49
2019-03-15T19:39:14.047Z,28.87
2019-03-15T19:41:40.321Z,28.79
2019-03-15T19:44:06.519Z,29.06
2019-03-15T19:46:32.681Z,28.22
2019-03-15T19:48:58.875Z,29.35
2019-03-15T19:51:25.039Z,29.39
2019-03-15T19:53:51.199Z,29.30
2019-03-15T19:56:17.497Z,29.73
2019-03-15T19:58:43.755Z,29.61
2019-03-15T20:01:09.918Z,31.02
2019-03-15T20:03:43.999Z,29.68
2019-03-15T20:06:07.003Z,29.98
2019-03-15T20:08:33.167Z,30.76
2019-03-15T20:10:59.464Z,31.03
2019-03-15T20:13:25.630Z,31.05
2019-03-15T20:15:51.889Z,30.76
2019-03-15T20:18:20.971Z,30.16
2019-03-15T20:20:46.391Z,30.08
2019-03-15T20:23:12.556Z,29.86
2019-03-15T20:25:38.804Z,28.78
2019-03-15T20:28:04.952Z,28.38
2019-03-15T20:30:31.171Z,28.31
2019-03-15T20:32:57.463Z,28.81
2019-03-15T20:35:23.625Z,29.00
2019-03-15T20:37:49.813Z,28.46
2019-03-15T20:40:16.004Z,27.52
2019-03-15T20:42:42.165Z,27.29
2019-03-15T20:45:16.986Z,27.43
2019-03-15T20:47:43.288Z,27.96
2019-03-15T20:50:11.465Z,27.39
2019-03-15T20:52:37.620Z,27.14
2019-03-15T20:55:04.720Z,26.99
2019-03-15T20:57:30.988Z,27.37
2019-03-15T20:59:57.165Z,27.38
2019-03-15T21:02:23.374Z,27.37
2019-03-15T21:04:49.534Z,27.67
2019-03-15T21:07:15.711Z,27.49
2019-03-15T21:09:41.899Z,27.85
2019-03-15T21:12:08.159Z,27.65
2019-03-15T21:14:34.334Z,28.07
2019-03-15T21:17:00.529Z,28.27
2019-03-15T21:19:27.202Z,28.30
2019-03-15T21:21:56.213Z,28.67
2019-03-15T21:24:21.600Z,28.87
2019-03-15T21:26:47.760Z,29.12
2019-03-15T21:29:13.916Z,29.04
2019-03-15T21:31:40.118Z,29.00
2019-03-15T21:34:06.280Z,29.10
2019-03-15T21:36:32.438Z,30.13
2019-03-15T21:38:58.624Z,29.55
2019-03-15T21:41:24.780Z,29.19
2019-03-15T21:43:51.041Z,29.35
2019-03-15T21:46:17.249Z,28.16
2019-03-15T21:48:43.406Z,28.58
2019-03-15T21:51:12.158Z,28.24
2019-03-15T21:53:38.373Z,27.98
2019-03-15T21:56:04.643Z,28.23
2019-03-15T21:58:30.808Z,28.22
2019-03-15T22:01:02.346Z,28.18
2019-03-15T22:03:25.057Z,29.25
2019-03-15T22:05:51.216Z,30.53
2019-03-15T22:08:17.513Z,29.41
2019-03-15T22:10:43.772Z,30.43
2019-03-15T22:13:09.935Z,29.99
2019-03-15T22:15:37.042Z,29.16
2019-03-15T22:18:03.229Z,30.75
2019-03-15T22:20:29.419Z,30.04
2019-03-15T22:22:55.716Z,30.48
2019-03-15T22:25:21.885Z,32.24
2019-03-15T22:27:50.189Z,31.43
2019-03-15T22:30:16.267Z,31.08
2019-03-15T22:32:42.615Z,31.66
2019-03-15T22:35:08.890Z,32.44
2019-03-15T22:37:35.179Z,32.93
2019-03-15T22:40:01.344Z,31.97
2019-03-15T22:42:28.283Z,31.90
2019-03-15T22:44:54.503Z,32.75
2019-03-15T22:47:20.674Z,32.98
2019-03-15T22:49:46.828Z,32.12
2019-03-15T22:52:13.038Z,32.90
2019-03-15T22:54:39.197Z,33.00
2019-03-15T22:57:05.357Z,32.64
2019-03-15T22:59:31.556Z,33.54
2019-03-15T23:01:57.723Z,33.39
2019-03-15T23:04:23.894Z,34.83
2019-03-15T23:06:50.085Z,33.69
2019-03-15T23:09:16.248Z,34.26
2019-03-15T23:11:42.412Z,34.53
2019-03-15T23:14:08.624Z,34.03
2019-03-15T23:16:34.873Z,34.58
2019-03-15T23:19:01.024Z,34.02
2019-03-15T23:21:27.273Z,34.55
2019-03-15T23:23:53.429Z,34.65
2019-03-15T23:26:19.592Z,34.34
2019-03-15T23:28:47.246Z,34.49
2019-03-15T23:31:13.771Z,34.77
2019-03-15T23:33:40.004Z,34.15
2019-03-15T23:36:06.195Z,35.37
2019-03-15T23:38:32.349Z,35.15
2019-03-15T23:40:58.507Z,35.37
2019-03-15T23:43:24.716Z,34.46
2019-03-15T23:45:50.870Z,35.14
2019-03-15T23:48:17.032Z,36.16
2019-03-15T23:50:43.329Z,35.86
2019-03-15T23:53:09.492Z,35.93
2019-03-15T23:55:35.661Z,36.32
2019-03-15T23:58:01.875Z,36.58
